sensor_id;sensor_type;location;lat;lon;timestamp;P1;durP1;ratioP1;P2;durP2;ratioP2
5585;SDS011;2815;54.094;12.112;2023-04-24T00:00:13;6.20;;;3.80;;
5585;SDS011;2815;54.094;12.112;2023-04-24T00:02:42;6.85;;;4.15;;
5585;SDS011;2815;54.094;12.112;2023-04-24T00:05:13;5.53;;;4.00;;
5585;SDS011;2815;54.094;12.112;2023-04-24T00:07:42;6.63;;;4.13;;
5585;SDS011;2815;54.094;12.112;2023-04-24T00:10:10;7.00;;;3.90;;
5585;SDS011;2815;54.094;12.112;2023-04-24T00:12:40;6.00;;;4.22;;
5585;SDS011;2815;54.094;12.112;2023-04-24T00:15:08;7.63;;;3.90;;
5585;SDS011;2815;54.094;12.112;2023-04-24T00:17:37;6.13;;;3.90;;
5585;SDS011;2815;54.094;12.112;2023-04-24T00:20:06;5.65;;;3.83;;
5585;SDS011;2815;54.094;12.112;2023-04-24T00:22:34;4.70;;;3.38;;
5585;SDS011;2815;54.094;12.112;2023-04-24T00:25:03;6.10;;;3.85;;
5585;SDS011;2815;54.094;12.112;2023-04-24T00:27:32;5.90;;;3.83;;
5585;SDS011;2815;54.094;12.112;2023-04-24T00:30:03;4.45;;;3.50;;
5585;SDS011;2815;54.094;12.112;2023-04-24T00:32:32;5.65;;;3.65;;
5585;SDS011;2815;54.094;12.112;2023-04-24T00:35:00;7.03;;;3.65;;
5585;SDS011;2815;54.094;12.112;2023-04-24T00:37:28;5.03;;;3.50;;
5585;SDS011;2815;54.094;12.112;2023-04-24T00:39:56;4.65;;;3.40;;
5585;SDS011;2815;54.094;12.112;2023-04-24T00:42:24;4.50;;;3.50;;
5585;SDS011;2815;54.094;12.112;2023-04-24T00:44:53;4.45;;;3.38;;
5585;SDS011;2815;54.094;12.112;2023-04-24T00:47:22;4.97;;;3.42;;
5585;SDS011;2815;54.094;12.112;2023-04-24T00:49:51;5.55;;;3.90;;
5585;SDS011;2815;54.094;12.112;2023-04-24T00:52:19;8.52;;;3.70;;
5585;SDS011;2815;54.094;12.112;2023-04-24T00:54:50;4.97;;;3.50;;
5585;SDS011;2815;54.094;12.112;2023-04-24T00:57:18;5.75;;;3.42;;
5585;SDS011;2815;54.094;12.112;2023-04-24T00:59:46;5.40;;;3.40;;
5585;SDS011;2815;54.094;12.112;2023-04-24T01:02:14;6.88;;;3.45;;
5585;SDS011;2815;54.094;12.112;2023-04-24T01:04:44;5.45;;;3.25;;
5585;SDS011;2815;54.094;12.112;2023-04-24T01:07:12;5.97;;;3.63;;
5585;SDS011;2815;54.094;12.112;2023-04-24T01:09:40;4.38;;;3.42;;
5585;SDS011;2815;54.094;12.112;2023-04-24T01:12:09;6.35;;;3.75;;
5585;SDS011;2815;54.094;12.112;2023-04-24T01:14:37;7.15;;;3.95;;
5585;SDS011;2815;54.094;12.112;2023-04-24T01:17:05;6.68;;;3.92;;
5585;SDS011;2815;54.094;12.112;2023-04-24T01:19:33;5.88;;;3.53;;
5585;SDS011;2815;54.094;12.112;2023-04-24T01:24:40;5.30;;;3.38;;
5585;SDS011;2815;54.094;12.112;2023-04-24T01:27:08;5.10;;;3.50;;
5585;SDS011;2815;54.094;12.112;2023-04-24T01:29:37;6.07;;;3.42;;
5585;SDS011;2815;54.094;12.112;2023-04-24T01:32:08;6.43;;;3.67;;
5585;SDS011;2815;54.094;12.112;2023-04-24T01:34:37;5.80;;;4.00;;
5585;SDS011;2815;54.094;12.112;2023-04-24T01:37:05;5.78;;;4.00;;
5585;SDS011;2815;54.094;12.112;2023-04-24T01:39:34;7.13;;;3.58;;
5585;SDS011;2815;54.094;12.112;2023-04-24T01:42:03;4.85;;;3.47;;
5585;SDS011;2815;54.094;12.112;2023-04-24T01:44:33;6.55;;;3.90;;
5585;SDS011;2815;54.094;12.112;2023-04-24T01:47:02;5.70;;;3.88;;
5585;SDS011;2815;54.094;12.112;2023-04-24T01:49:31;5.22;;;3.67;;
5585;SDS011;2815;54.094;12.112;2023-04-24T01:51:59;6.35;;;3.85;;
5585;SDS011;2815;54.094;12.112;2023-04-24T01:54:29;6.63;;;3.80;;
5585;SDS011;2815;54.094;12.112;2023-04-24T01:56:59;9.90;;;4.35;;
5585;SDS011;2815;54.094;12.112;2023-04-24T01:59:28;5.38;;;3.72;;
5585;SDS011;2815;54.094;12.112;2023-04-24T02:01:57;7.65;;;3.50;;
5585;SDS011;2815;54.094;12.112;2023-04-24T02:04:28;8.25;;;3.42;;
5585;SDS011;2815;54.094;12.112;2023-04-24T02:06:56;5.30;;;3.60;;
5585;SDS011;2815;54.094;12.112;2023-04-24T02:09:24;5.00;;;3.92;;
5585;SDS011;2815;54.094;12.112;2023-04-24T02:11:52;6.55;;;4.30;;
5585;SDS011;2815;54.094;12.112;2023-04-24T02:14:21;4.93;;;3.53;;
5585;SDS011;2815;54.094;12.112;2023-04-24T02:16:49;8.68;;;4.05;;
5585;SDS011;2815;54.094;12.112;2023-04-24T02:19:18;5.22;;;3.85;;
5585;SDS011;2815;54.094;12.112;2023-04-24T02:21:46;5.65;;;3.97;;
5585;SDS011;2815;54.094;12.112;2023-04-24T02:24:14;6.38;;;4.20;;
5585;SDS011;2815;54.094;12.112;2023-04-24T02:26:42;7.68;;;4.10;;
5585;SDS011;2815;54.094;12.112;2023-04-24T02:29:10;7.10;;;4.55;;
5585;SDS011;2815;54.094;12.112;2023-04-24T02:31:41;6.60;;;4.30;;
5585;SDS011;2815;54.094;12.112;2023-04-24T02:34:12;5.40;;;3.83;;
5585;SDS011;2815;54.094;12.112;2023-04-24T02:36:40;5.78;;;3.92;;
5585;SDS011;2815;54.094;12.112;2023-04-24T02:39:08;6.63;;;4.20;;
5585;SDS011;2815;54.094;12.112;2023-04-24T02:41:38;8.85;;;4.60;;
5585;SDS011;2815;54.094;12.112;2023-04-24T02:44:07;8.68;;;4.75;;
5585;SDS011;2815;54.094;12.112;2023-04-24T02:46:36;7.72;;;3.97;;
5585;SDS011;2815;54.094;12.112;2023-04-24T02:49:05;5.32;;;3.92;;
5585;SDS011;2815;54.094;12.112;2023-04-24T02:51:34;6.15;;;4.13;;
5585;SDS011;2815;54.094;12.112;2023-04-24T02:54:10;6.57;;;4.20;;
5585;SDS011;2815;54.094;12.112;2023-04-24T02:56:38;5.63;;;3.97;;
5585;SDS011;2815;54.094;12.112;2023-04-24T02:59:08;7.05;;;4.28;;
5585;SDS011;2815;54.094;12.112;2023-04-24T03:01:37;7.82;;;4.57;;
5585;SDS011;2815;54.094;12.112;2023-04-24T03:04:07;5.32;;;3.83;;
5585;SDS011;2815;54.094;12.112;2023-04-24T03:06:35;6.93;;;3.95;;
5585;SDS011;2815;54.094;12.112;2023-04-24T03:09:03;6.68;;;4.15;;
5585;SDS011;2815;54.094;12.112;2023-04-24T03:11:31;6.72;;;4.60;;
5585;SDS011;2815;54.094;12.112;2023-04-24T03:13:59;8.13;;;4.30;;
5585;SDS011;2815;54.094;12.112;2023-04-24T03:16:27;5.97;;;4.20;;
5585;SDS011;2815;54.094;12.112;2023-04-24T03:18:56;5.38;;;4.03;;
5585;SDS011;2815;54.094;12.112;2023-04-24T03:21:28;5.57;;;3.75;;
5585;SDS011;2815;54.094;12.112;2023-04-24T03:23:57;5.97;;;4.40;;
5585;SDS011;2815;54.094;12.112;2023-04-24T03:26:26;6.15;;;4.28;;
5585;SDS011;2815;54.094;12.112;2023-04-24T03:29:14;4.90;;;3.95;;
5585;SDS011;2815;54.094;12.112;2023-04-24T03:31:42;8.25;;;4.30;;
5585;SDS011;2815;54.094;12.112;2023-04-24T03:34:10;5.78;;;3.47;;
5585;SDS011;2815;54.094;12.112;2023-04-24T03:36:40;7.20;;;4.72;;
5585;SDS011;2815;54.094;12.112;2023-04-24T03:39:08;8.82;;;4.72;;
5585;SDS011;2815;54.094;12.112;2023-04-24T03:41:41;6.18;;;4.20;;
5585;SDS011;2815;54.094;12.112;2023-04-24T03:44:14;4.90;;;3.78;;
5585;SDS011;2815;54.094;12.112;2023-04-24T03:46:42;6.95;;;4.30;;
5585;SDS011;2815;54.094;12.112;2023-04-24T03:49:12;6.60;;;4.32;;
5585;SDS011;2815;54.094;12.112;2023-04-24T03:51:44;6.10;;;3.72;;
5585;SDS011;2815;54.094;12.112;2023-04-24T03:54:22;7.70;;;4.03;;
5585;SDS011;2815;54.094;12.112;2023-04-24T03:56:51;8.45;;;4.22;;
5585;SDS011;2815;54.094;12.112;2023-04-24T03:59:21;5.53;;;3.83;;
5585;SDS011;2815;54.094;12.112;2023-04-24T04:02:03;8.00;;;3.97;;
5585;SDS011;2815;54.094;12.112;2023-04-24T04:04:32;5.55;;;3.80;;
5585;SDS011;2815;54.094;12.112;2023-04-24T04:07:02;6.20;;;3.95;;
5585;SDS011;2815;54.094;12.112;2023-04-24T04:09:32;5.55;;;4.15;;
5585;SDS011;2815;54.094;12.112;2023-04-24T04:12:00;7.88;;;3.90;;
5585;SDS011;2815;54.094;12.112;2023-04-24T04:14:28;7.05;;;4.70;;
5585;SDS011;2815;54.094;12.112;2023-04-24T04:16:57;7.75;;;4.25;;
5585;SDS011;2815;54.094;12.112;2023-04-24T04:19:25;8.00;;;4.30;;
5585;SDS011;2815;54.094;12.112;2023-04-24T04:21:53;6.47;;;4.47;;
5585;SDS011;2815;54.094;12.112;2023-04-24T04:24:40;6.15;;;4.40;;
5585;SDS011;2815;54.094;12.112;2023-04-24T04:27:09;6.70;;;4.15;;
5585;SDS011;2815;54.094;12.112;2023-04-24T04:29:47;7.90;;;4.55;;
5585;SDS011;2815;54.094;12.112;2023-04-24T04:32:17;7.00;;;4.70;;
5585;SDS011;2815;54.094;12.112;2023-04-24T04:34:46;6.53;;;4.32;;
5585;SDS011;2815;54.094;12.112;2023-04-24T04:37:16;7.93;;;4.07;;
5585;SDS011;2815;54.094;12.112;2023-04-24T04:39:53;7.55;;;4.65;;
5585;SDS011;2815;54.094;12.112;2023-04-24T04:42:25;8.80;;;4.10;;
5585;SDS011;2815;54.094;12.112;2023-04-24T04:44:54;5.43;;;3.95;;
5585;SDS011;2815;54.094;12.112;2023-04-24T04:47:31;8.85;;;4.63;;
5585;SDS011;2815;54.094;12.112;2023-04-24T04:50:00;6.10;;;4.47;;
5585;SDS011;2815;54.094;12.112;2023-04-24T04:52:31;6.43;;;4.18;;
5585;SDS011;2815;54.094;12.112;2023-04-24T04:55:18;6.70;;;4.40;;
5585;SDS011;2815;54.094;12.112;2023-04-24T04:58:05;6.20;;;4.15;;
5585;SDS011;2815;54.094;12.112;2023-04-24T05:00:35;7.60;;;4.38;;
5585;SDS011;2815;54.094;12.112;2023-04-24T05:03:20;4.97;;;3.95;;
5585;SDS011;2815;54.094;12.112;2023-04-24T05:05:55;7.65;;;4.70;;
5585;SDS011;2815;54.094;12.112;2023-04-24T05:08:24;5.93;;;4.05;;
5585;SDS011;2815;54.094;12.112;2023-04-24T05:10:55;7.05;;;4.18;;
5585;SDS011;2815;54.094;12.112;2023-04-24T05:13:26;5.85;;;4.22;;
5585;SDS011;2815;54.094;12.112;2023-04-24T05:16:11;6.97;;;4.30;;
5585;SDS011;2815;54.094;12.112;2023-04-24T05:18:41;6.05;;;4.03;;
5585;SDS011;2815;54.094;12.112;2023-04-24T05:21:13;7.32;;;4.65;;
5585;SDS011;2815;54.094;12.112;2023-04-24T05:23:44;6.55;;;4.03;;
5585;SDS011;2815;54.094;12.112;2023-04-24T05:26:18;7.30;;;4.18;;
5585;SDS011;2815;54.094;12.112;2023-04-24T05:28:46;13.98;;;4.50;;
5585;SDS011;2815;54.094;12.112;2023-04-24T05:31:15;6.65;;;3.85;;
5585;SDS011;2815;54.094;12.112;2023-04-24T05:33:45;5.55;;;4.20;;
5585;SDS011;2815;54.094;12.112;2023-04-24T05:36:13;6.40;;;4.03;;
5585;SDS011;2815;54.094;12.112;2023-04-24T05:38:50;6.55;;;4.40;;
5585;SDS011;2815;54.094;12.112;2023-04-24T05:41:20;7.15;;;4.13;;
5585;SDS011;2815;54.094;12.112;2023-04-24T05:43:49;7.43;;;3.97;;
5585;SDS011;2815;54.094;12.112;2023-04-24T05:46:17;9.25;;;4.28;;
5585;SDS011;2815;54.094;12.112;2023-04-24T05:48:45;5.65;;;3.63;;
5585;SDS011;2815;54.094;12.112;2023-04-24T05:51:17;8.10;;;4.68;;
5585;SDS011;2815;54.094;12.112;2023-04-24T05:53:46;5.90;;;4.00;;
5585;SDS011;2815;54.094;12.112;2023-04-24T05:56:17;5.38;;;4.10;;
5585;SDS011;2815;54.094;12.112;2023-04-24T05:58:46;6.35;;;4.22;;
5585;SDS011;2815;54.094;12.112;2023-04-24T06:01:14;9.50;;;4.38;;
5585;SDS011;2815;54.094;12.112;2023-04-24T06:03:51;6.20;;;4.07;;
5585;SDS011;2815;54.094;12.112;2023-04-24T06:06:20;8.50;;;4.00;;
5585;SDS011;2815;54.094;12.112;2023-04-24T06:08:50;6.55;;;3.95;;
5585;SDS011;2815;54.094;12.112;2023-04-24T06:11:18;7.57;;;4.07;;
5585;SDS011;2815;54.094;12.112;2023-04-24T06:13:48;8.20;;;4.18;;
5585;SDS011;2815;54.094;12.112;2023-04-24T06:16:43;5.55;;;4.07;;
5585;SDS011;2815;54.094;12.112;2023-04-24T06:19:26;5.45;;;3.70;;
5585;SDS011;2815;54.094;12.112;2023-04-24T06:21:54;5.22;;;3.63;;
5585;SDS011;2815;54.094;12.112;2023-04-24T06:24:24;5.07;;;3.60;;
5585;SDS011;2815;54.094;12.112;2023-04-24T06:26:55;5.72;;;3.60;;
5585;SDS011;2815;54.094;12.112;2023-04-24T06:29:27;4.63;;;3.47;;
5585;SDS011;2815;54.094;12.112;2023-04-24T06:31:55;5.50;;;3.60;;
5585;SDS011;2815;54.094;12.112;2023-04-24T06:34:26;4.38;;;2.97;;
5585;SDS011;2815;54.094;12.112;2023-04-24T06:36:55;5.97;;;3.47;;
5585;SDS011;2815;54.094;12.112;2023-04-24T06:39:23;3.92;;;3.17;;
5585;SDS011;2815;54.094;12.112;2023-04-24T06:41:51;3.80;;;3.05;;
5585;SDS011;2815;54.094;12.112;2023-04-24T06:44:21;5.38;;;3.03;;
5585;SDS011;2815;54.094;12.112;2023-04-24T06:46:51;5.75;;;2.78;;
5585;SDS011;2815;54.094;12.112;2023-04-24T06:49:19;5.55;;;2.70;;
5585;SDS011;2815;54.094;12.112;2023-04-24T06:51:49;5.20;;;2.63;;
5585;SDS011;2815;54.094;12.112;2023-04-24T06:54:17;3.97;;;2.58;;
5585;SDS011;2815;54.094;12.112;2023-04-24T06:56:48;4.07;;;2.55;;
5585;SDS011;2815;54.094;12.112;2023-04-24T06:59:18;4.10;;;2.50;;
5585;SDS011;2815;54.094;12.112;2023-04-24T07:01:48;3.22;;;2.50;;
5585;SDS011;2815;54.094;12.112;2023-04-24T07:04:22;4.57;;;2.30;;
5585;SDS011;2815;54.094;12.112;2023-04-24T07:06:53;3.72;;;2.40;;
5585;SDS011;2815;54.094;12.112;2023-04-24T07:09:22;7.50;;;2.30;;
5585;SDS011;2815;54.094;12.112;2023-04-24T07:11:52;5.72;;;2.20;;
5585;SDS011;2815;54.094;12.112;2023-04-24T07:14:22;3.05;;;2.13;;
5585;SDS011;2815;54.094;12.112;2023-04-24T07:16:51;4.10;;;2.15;;
5585;SDS011;2815;54.094;12.112;2023-04-24T07:19:19;3.40;;;2.20;;
5585;SDS011;2815;54.094;12.112;2023-04-24T07:21:50;5.60;;;2.40;;
5585;SDS011;2815;54.094;12.112;2023-04-24T07:24:19;2.78;;;2.10;;
5585;SDS011;2815;54.094;12.112;2023-04-24T07:26:50;3.42;;;2.22;;
5585;SDS011;2815;54.094;12.112;2023-04-24T07:29:19;3.40;;;2.10;;
5585;SDS011;2815;54.094;12.112;2023-04-24T07:31:47;2.30;;;1.80;;
5585;SDS011;2815;54.094;12.112;2023-04-24T07:34:17;2.15;;;1.60;;
5585;SDS011;2815;54.094;12.112;2023-04-24T07:36:47;1.92;;;1.70;;
5585;SDS011;2815;54.094;12.112;2023-04-24T07:39:17;3.72;;;1.83;;
5585;SDS011;2815;54.094;12.112;2023-04-24T07:41:46;2.20;;;1.80;;
5585;SDS011;2815;54.094;12.112;2023-04-24T07:44:14;2.03;;;1.70;;
5585;SDS011;2815;54.094;12.112;2023-04-24T07:46:42;3.13;;;1.80;;
5585;SDS011;2815;54.094;12.112;2023-04-24T07:49:11;2.33;;;1.77;;
5585;SDS011;2815;54.094;12.112;2023-04-24T07:51:41;2.53;;;1.67;;
5585;SDS011;2815;54.094;12.112;2023-04-24T07:54:11;5.30;;;1.70;;
5585;SDS011;2815;54.094;12.112;2023-04-24T07:56:42;2.40;;;1.45;;
5585;SDS011;2815;54.094;12.112;2023-04-24T07:59:11;2.08;;;1.30;;
5585;SDS011;2815;54.094;12.112;2023-04-24T08:01:40;3.30;;;1.48;;
5585;SDS011;2815;54.094;12.112;2023-04-24T08:04:08;1.65;;;1.13;;
5585;SDS011;2815;54.094;12.112;2023-04-24T08:06:37;4.60;;;1.75;;
5585;SDS011;2815;54.094;12.112;2023-04-24T08:09:05;1.98;;;1.70;;
5585;SDS011;2815;54.094;12.112;2023-04-24T08:11:33;1.85;;;1.55;;
5585;SDS011;2815;54.094;12.112;2023-04-24T08:14:03;1.63;;;1.42;;
5585;SDS011;2815;54.094;12.112;2023-04-24T08:16:32;2.83;;;1.63;;
5585;SDS011;2815;54.094;12.112;2023-04-24T08:19:00;1.88;;;1.52;;
5585;SDS011;2815;54.094;12.112;2023-04-24T08:21:28;2.30;;;1.40;;
5585;SDS011;2815;54.094;12.112;2023-04-24T08:23:57;3.10;;;1.38;;
5585;SDS011;2815;54.094;12.112;2023-04-24T08:26:26;1.77;;;1.40;;
5585;SDS011;2815;54.094;12.112;2023-04-24T08:28:54;2.08;;;1.58;;
5585;SDS011;2815;54.094;12.112;2023-04-24T08:31:25;1.38;;;1.20;;
5585;SDS011;2815;54.094;12.112;2023-04-24T08:33:55;2.75;;;1.38;;
5585;SDS011;2815;54.094;12.112;2023-04-24T08:36:23;3.42;;;1.65;;
5585;SDS011;2815;54.094;12.112;2023-04-24T08:39:09;3.15;;;1.25;;
5585;SDS011;2815;54.094;12.112;2023-04-24T08:41:37;1.80;;;1.30;;
5585;SDS011;2815;54.094;12.112;2023-04-24T08:44:07;3.53;;;1.30;;
5585;SDS011;2815;54.094;12.112;2023-04-24T08:46:39;1.42;;;1.30;;
5585;SDS011;2815;54.094;12.112;2023-04-24T08:49:08;1.88;;;1.30;;
5585;SDS011;2815;54.094;12.112;2023-04-24T08:51:37;1.27;;;1.17;;
5585;SDS011;2815;54.094;12.112;2023-04-24T08:54:08;4.13;;;1.20;;
5585;SDS011;2815;54.094;12.112;2023-04-24T08:56:37;1.98;;;1.55;;
5585;SDS011;2815;54.094;12.112;2023-04-24T08:59:10;1.60;;;1.40;;
5585;SDS011;2815;54.094;12.112;2023-04-24T09:01:42;1.98;;;1.20;;
5585;SDS011;2815;54.094;12.112;2023-04-24T09:06:43;2.10;;;1.10;;
5585;SDS011;2815;54.094;12.112;2023-04-24T09:09:11;2.70;;;1.08;;
5585;SDS011;2815;54.094;12.112;2023-04-24T09:11:42;1.83;;;1.25;;
5585;SDS011;2815;54.094;12.112;2023-04-24T09:14:10;2.60;;;1.25;;
5585;SDS011;2815;54.094;12.112;2023-04-24T09:16:39;1.98;;;0.93;;
5585;SDS011;2815;54.094;12.112;2023-04-24T09:19:10;2.45;;;1.45;;
5585;SDS011;2815;54.094;12.112;2023-04-24T09:21:39;4.38;;;1.35;;
5585;SDS011;2815;54.094;12.112;2023-04-24T09:24:14;3.17;;;1.10;;
5585;SDS011;2815;54.094;12.112;2023-04-24T09:26:45;1.75;;;1.15;;
5585;SDS011;2815;54.094;12.112;2023-04-24T09:29:14;1.63;;;1.20;;
5585;SDS011;2815;54.094;12.112;2023-04-24T09:31:44;1.85;;;1.27;;
5585;SDS011;2815;54.094;12.112;2023-04-24T09:34:14;3.83;;;1.38;;
5585;SDS011;2815;54.094;12.112;2023-04-24T09:36:42;2.20;;;1.25;;
5585;SDS011;2815;54.094;12.112;2023-04-24T09:39:11;1.52;;;1.10;;
5585;SDS011;2815;54.094;12.112;2023-04-24T09:41:45;1.83;;;1.10;;
5585;SDS011;2815;54.094;12.112;2023-04-24T09:44:15;1.63;;;1.33;;
5585;SDS011;2815;54.094;12.112;2023-04-24T09:46:44;1.23;;;1.10;;
5585;SDS011;2815;54.094;12.112;2023-04-24T09:49:22;2.72;;;1.50;;
5585;SDS011;2815;54.094;12.112;2023-04-24T09:51:51;1.52;;;1.40;;
5585;SDS011;2815;54.094;12.112;2023-04-24T09:54:20;1.85;;;1.35;;
5585;SDS011;2815;54.094;12.112;2023-04-24T09:56:49;1.45;;;1.15;;
5585;SDS011;2815;54.094;12.112;2023-04-24T09:59:18;1.40;;;1.17;;
5585;SDS011;2815;54.094;12.112;2023-04-24T10:01:48;1.60;;;1.23;;
5585;SDS011;2815;54.094;12.112;2023-04-24T10:04:21;3.30;;;1.60;;
5585;SDS011;2815;54.094;12.112;2023-04-24T10:06:52;1.25;;;1.00;;
5585;SDS011;2815;54.094;12.112;2023-04-24T10:09:22;1.50;;;1.30;;
5585;SDS011;2815;54.094;12.112;2023-04-24T10:11:52;1.60;;;1.17;;
5585;SDS011;2815;54.094;12.112;2023-04-24T10:14:21;1.25;;;1.15;;
5585;SDS011;2815;54.094;12.112;2023-04-24T10:16:50;3.08;;;1.30;;
5585;SDS011;2815;54.094;12.112;2023-04-24T10:19:22;1.40;;;1.20;;
5585;SDS011;2815;54.094;12.112;2023-04-24T10:21:54;2.58;;;1.10;;
5585;SDS011;2815;54.094;12.112;2023-04-24T10:24:22;1.65;;;1.20;;
5585;SDS011;2815;54.094;12.112;2023-04-24T10:26:51;1.45;;;1.10;;
5585;SDS011;2815;54.094;12.112;2023-04-24T10:29:19;1.65;;;1.08;;
5585;SDS011;2815;54.094;12.112;2023-04-24T10:31:48;5.68;;;1.00;;
5585;SDS011;2815;54.094;12.112;2023-04-24T10:34:17;1.15;;;1.00;;
5585;SDS011;2815;54.094;12.112;2023-04-24T10:36:51;3.10;;;1.13;;
5585;SDS011;2815;54.094;12.112;2023-04-24T10:39:23;2.38;;;1.20;;
5585;SDS011;2815;54.094;12.112;2023-04-24T10:41:53;1.20;;;1.10;;
5585;SDS011;2815;54.094;12.112;2023-04-24T10:44:24;1.42;;;1.00;;
5585;SDS011;2815;54.094;12.112;2023-04-24T10:46:55;1.27;;;1.17;;
5585;SDS011;2815;54.094;12.112;2023-04-24T10:49:30;1.88;;;1.27;;
5585;SDS011;2815;54.094;12.112;2023-04-24T10:52:01;2.75;;;1.48;;
5585;SDS011;2815;54.094;12.112;2023-04-24T10:54:34;1.60;;;1.20;;
5585;SDS011;2815;54.094;12.112;2023-04-24T10:57:25;2.42;;;1.20;;
5585;SDS011;2815;54.094;12.112;2023-04-24T11:00:14;1.55;;;1.10;;
5585;SDS011;2815;54.094;12.112;2023-04-24T11:02:45;1.17;;;1.00;;
5585;SDS011;2815;54.094;12.112;2023-04-24T11:05:17;2.97;;;1.38;;
5585;SDS011;2815;54.094;12.112;2023-04-24T11:10:46;1.38;;;1.20;;
5585;SDS011;2815;54.094;12.112;2023-04-24T11:13:15;1.50;;;1.20;;
5585;SDS011;2815;54.094;12.112;2023-04-24T11:15:43;2.15;;;1.00;;
5585;SDS011;2815;54.094;12.112;2023-04-24T11:18:15;1.48;;;1.20;;
5585;SDS011;2815;54.094;12.112;2023-04-24T11:20:43;1.20;;;1.10;;
5585;SDS011;2815;54.094;12.112;2023-04-24T11:23:13;1.35;;;1.08;;
5585;SDS011;2815;54.094;12.112;2023-04-24T11:25:41;1.67;;;1.10;;
5585;SDS011;2815;54.094;12.112;2023-04-24T11:28:13;1.60;;;1.10;;
5585;SDS011;2815;54.094;12.112;2023-04-24T11:30:45;3.40;;;0.88;;
5585;SDS011;2815;54.094;12.112;2023-04-24T11:33:13;1.13;;;1.00;;
5585;SDS011;2815;54.094;12.112;2023-04-24T11:35:47;2.25;;;1.20;;
5585;SDS011;2815;54.094;12.112;2023-04-24T11:38:16;2.53;;;1.10;;
5585;SDS011;2815;54.094;12.112;2023-04-24T11:40:51;1.10;;;1.00;;
5585;SDS011;2815;54.094;12.112;2023-04-24T11:43:20;1.08;;;0.95;;
5585;SDS011;2815;54.094;12.112;2023-04-24T11:45:51;1.23;;;1.05;;
5585;SDS011;2815;54.094;12.112;2023-04-24T11:48:19;2.47;;;1.25;;
5585;SDS011;2815;54.094;12.112;2023-04-24T11:50:50;1.48;;;1.20;;
5585;SDS011;2815;54.094;12.112;2023-04-24T11:53:20;2.15;;;1.30;;
5585;SDS011;2815;54.094;12.112;2023-04-24T11:55:48;6.50;;;1.40;;
5585;SDS011;2815;54.094;12.112;2023-04-24T11:58:16;1.48;;;1.00;;
5585;SDS011;2815;54.094;12.112;2023-04-24T12:00:54;0.97;;;0.87;;
5585;SDS011;2815;54.094;12.112;2023-04-24T12:03:23;1.50;;;1.00;;
5585;SDS011;2815;54.094;12.112;2023-04-24T12:05:52;2.63;;;1.27;;
5585;SDS011;2815;54.094;12.112;2023-04-24T12:08:28;1.10;;;1.00;;
5585;SDS011;2815;54.094;12.112;2023-04-24T12:10:58;2.65;;;1.33;;
5585;SDS011;2815;54.094;12.112;2023-04-24T12:13:27;2.25;;;1.17;;
5585;SDS011;2815;54.094;12.112;2023-04-24T12:15:57;2.85;;;1.00;;
5585;SDS011;2815;54.094;12.112;2023-04-24T12:18:25;1.05;;;0.95;;
5585;SDS011;2815;54.094;12.112;2023-04-24T12:20:54;1.10;;;1.00;;
5585;SDS011;2815;54.094;12.112;2023-04-24T12:23:34;1.20;;;0.80;;
5585;SDS011;2815;54.094;12.112;2023-04-24T12:26:03;4.40;;;1.33;;
5585;SDS011;2815;54.094;12.112;2023-04-24T12:28:36;1.90;;;1.10;;
5585;SDS011;2815;54.094;12.112;2023-04-24T12:31:05;1.65;;;1.00;;
5585;SDS011;2815;54.094;12.112;2023-04-24T12:33:35;1.40;;;0.90;;
5585;SDS011;2815;54.094;12.112;2023-04-24T12:36:05;1.73;;;1.00;;
5585;SDS011;2815;54.094;12.112;2023-04-24T12:38:35;1.10;;;0.88;;
5585;SDS011;2815;54.094;12.112;2023-04-24T12:41:08;2.33;;;1.20;;
5585;SDS011;2815;54.094;12.112;2023-04-24T12:43:37;3.38;;;1.00;;
5585;SDS011;2815;54.094;12.112;2023-04-24T12:46:06;1.40;;;1.02;;
5585;SDS011;2815;54.094;12.112;2023-04-24T12:48:34;2.60;;;1.10;;
5585;SDS011;2815;54.094;12.112;2023-04-24T12:51:02;4.20;;;1.02;;
5585;SDS011;2815;54.094;12.112;2023-04-24T12:53:31;1.33;;;1.23;;
5585;SDS011;2815;54.094;12.112;2023-04-24T12:56:00;2.13;;;1.38;;
5585;SDS011;2815;54.094;12.112;2023-04-24T12:58:30;2.03;;;1.30;;
5585;SDS011;2815;54.094;12.112;2023-04-24T13:00:59;2.30;;;1.25;;
5585;SDS011;2815;54.094;12.112;2023-04-24T13:03:27;2.17;;;1.02;;
5585;SDS011;2815;54.094;12.112;2023-04-24T13:05:55;1.77;;;1.30;;
5585;SDS011;2815;54.094;12.112;2023-04-24T13:08:23;1.35;;;0.90;;
5585;SDS011;2815;54.094;12.112;2023-04-24T13:10:51;1.70;;;0.90;;
5585;SDS011;2815;54.094;12.112;2023-04-24T13:13:21;1.40;;;1.15;;
5585;SDS011;2815;54.094;12.112;2023-04-24T13:15:49;1.70;;;1.10;;
5585;SDS011;2815;54.094;12.112;2023-04-24T13:18:18;1.52;;;1.20;;
5585;SDS011;2815;54.094;12.112;2023-04-24T13:20:47;1.40;;;1.30;;
5585;SDS011;2815;54.094;12.112;2023-04-24T13:23:16;3.47;;;1.27;;
5585;SDS011;2815;54.094;12.112;2023-04-24T13:25:45;1.75;;;1.35;;
5585;SDS011;2815;54.094;12.112;2023-04-24T13:28:13;1.67;;;1.20;;
5585;SDS011;2815;54.094;12.112;2023-04-24T13:30:43;1.45;;;1.30;;
5585;SDS011;2815;54.094;12.112;2023-04-24T13:33:11;1.38;;;1.20;;
5585;SDS011;2815;54.094;12.112;2023-04-24T13:35:39;2.00;;;1.40;;
5585;SDS011;2815;54.094;12.112;2023-04-24T13:38:07;3.33;;;1.30;;
5585;SDS011;2815;54.094;12.112;2023-04-24T13:40:36;1.70;;;1.35;;
5585;SDS011;2815;54.094;12.112;2023-04-24T13:43:04;2.58;;;1.60;;
5585;SDS011;2815;54.094;12.112;2023-04-24T13:45:33;1.90;;;1.50;;
5585;SDS011;2815;54.094;12.112;2023-04-24T13:48:02;3.25;;;1.50;;
5585;SDS011;2815;54.094;12.112;2023-04-24T13:50:31;2.35;;;1.90;;
5585;SDS011;2815;54.094;12.112;2023-04-24T13:52:59;2.33;;;1.70;;
5585;SDS011;2815;54.094;12.112;2023-04-24T13:55:28;1.70;;;1.60;;
5585;SDS011;2815;54.094;12.112;2023-04-24T13:57:57;2.63;;;1.75;;
5585;SDS011;2815;54.094;12.112;2023-04-24T14:00:25;2.70;;;1.88;;
5585;SDS011;2815;54.094;12.112;2023-04-24T14:02:53;2.92;;;2.03;;
5585;SDS011;2815;54.094;12.112;2023-04-24T14:05:23;2.92;;;2.00;;
5585;SDS011;2815;54.094;12.112;2023-04-24T14:07:51;3.17;;;2.00;;
5585;SDS011;2815;54.094;12.112;2023-04-24T14:10:20;2.65;;;1.90;;
5585;SDS011;2815;54.094;12.112;2023-04-24T14:12:48;8.55;;;2.05;;
5585;SDS011;2815;54.094;12.112;2023-04-24T14:15:16;3.50;;;2.13;;
5585;SDS011;2815;54.094;12.112;2023-04-24T14:17:44;3.42;;;2.40;;
5585;SDS011;2815;54.094;12.112;2023-04-24T14:20:12;3.58;;;2.70;;
5585;SDS011;2815;54.094;12.112;2023-04-24T14:22:42;3.95;;;2.50;;
5585;SDS011;2815;54.094;12.112;2023-04-24T14:25:10;3.53;;;2.60;;
5585;SDS011;2815;54.094;12.112;2023-04-24T14:27:38;3.50;;;2.22;;
5585;SDS011;2815;54.094;12.112;2023-04-24T14:30:07;3.83;;;2.60;;
5585;SDS011;2815;54.094;12.112;2023-04-24T14:32:35;3.53;;;2.40;;
5585;SDS011;2815;54.094;12.112;2023-04-24T14:35:04;3.97;;;2.40;;
5585;SDS011;2815;54.094;12.112;2023-04-24T14:37:33;3.17;;;2.25;;
5585;SDS011;2815;54.094;12.112;2023-04-24T14:40:04;3.55;;;2.60;;
5585;SDS011;2815;54.094;12.112;2023-04-24T14:42:37;4.30;;;2.63;;
5585;SDS011;2815;54.094;12.112;2023-04-24T14:45:05;5.78;;;2.65;;
5585;SDS011;2815;54.094;12.112;2023-04-24T14:47:35;4.72;;;2.38;;
5585;SDS011;2815;54.094;12.112;2023-04-24T14:50:05;3.88;;;2.40;;
5585;SDS011;2815;54.094;12.112;2023-04-24T14:52:34;4.80;;;2.40;;
5585;SDS011;2815;54.094;12.112;2023-04-24T14:55:06;5.18;;;2.92;;
5585;SDS011;2815;54.094;12.112;2023-04-24T14:57:35;4.45;;;2.70;;
5585;SDS011;2815;54.094;12.112;2023-04-24T15:00:03;3.70;;;2.70;;
5585;SDS011;2815;54.094;12.112;2023-04-24T15:02:34;5.25;;;3.05;;
5585;SDS011;2815;54.094;12.112;2023-04-24T15:05:06;3.65;;;2.70;;
5585;SDS011;2815;54.094;12.112;2023-04-24T15:07:35;3.05;;;2.60;;
5585;SDS011;2815;54.094;12.112;2023-04-24T15:10:05;6.82;;;2.90;;
5585;SDS011;2815;54.094;12.112;2023-04-24T15:12:34;3.60;;;2.80;;
5585;SDS011;2815;54.094;12.112;2023-04-24T15:15:02;3.75;;;2.72;;
5585;SDS011;2815;54.094;12.112;2023-04-24T15:17:31;4.47;;;3.00;;
5585;SDS011;2815;54.094;12.112;2023-04-24T15:20:00;4.82;;;2.80;;
5585;SDS011;2815;54.094;12.112;2023-04-24T15:22:31;3.10;;;2.63;;
5585;SDS011;2815;54.094;12.112;2023-04-24T15:24:59;3.47;;;2.40;;